createdAt,value
2019-06-10T00:01:34.856Z,12.93
2019-06-10T00:04:05.164Z,12.86
2019-06-10T00:06:32.025Z,12.76
2019-06-10T00:09:03.100Z,12.74
2019-06-10T00:11:31.384Z,12.50
2019-06-10T00:13:58.606Z,12.44
2019-06-10T00:16:26.418Z,12.57
2019-06-10T00:18:54.058Z,12.63
2019-06-10T00:21:21.925Z,12.67
2019-06-10T00:23:51.627Z,12.83
2019-06-10T00:26:21.465Z,12.53
2019-06-10T00:28:48.438Z,12.41
2019-06-10T00:31:16.082Z,12.25
2019-06-10T00:33:43.821Z,12.40
2019-06-10T00:36:13.651Z,12.31
2019-06-10T00:38:41.266Z,12.25
2019-06-10T00:41:13.655Z,12.25
2019-06-10T00:43:38.471Z,12.13
2019-06-10T00:46:07.474Z,12.15
2019-06-10T00:48:35.485Z,12.08
2019-06-10T00:51:04.515Z,12.01
2019-06-10T00:53:32.493Z,11.99
2019-06-10T00:56:03.281Z,12.02
2019-06-10T00:58:31.802Z,12.17
2019-06-10T01:01:01.160Z,12.17
2019-06-10T01:03:28.361Z,12.21
2019-06-10T01:05:56.041Z,12.26
2019-06-10T01:08:23.774Z,12.33
2019-06-10T01:10:52.299Z,12.51
2019-06-10T01:13:20.802Z,12.52
2019-06-10T01:15:50.942Z,12.38
2019-06-10T01:18:34.142Z,12.26
2019-06-10T01:20:47.517Z,12.16
2019-06-10T01:23:15.733Z,12.26
2019-06-10T01:25:43.562Z,12.12
2019-06-10T01:28:14.725Z,12.20
2019-06-10T01:30:41.347Z,12.23
2019-06-10T01:33:12.303Z,12.41
2019-06-10T01:35:41.186Z,12.49
2019-06-10T01:38:08.031Z,12.51
2019-06-10T01:40:35.707Z,12.62
2019-06-10T01:43:03.349Z,12.66
2019-06-10T01:45:31.290Z,12.45
2019-06-10T01:48:01.327Z,12.49
2019-06-10T01:50:28.517Z,12.53
2019-06-10T01:52:56.145Z,12.46
2019-06-10T01:55:23.890Z,12.62
2019-06-10T01:57:51.917Z,12.61
2019-06-10T02:00:25.831Z,12.41
2019-06-10T02:02:52.433Z,12.37
2019-06-10T02:05:22.691Z,12.62
2019-06-10T02:07:51.652Z,12.63
2019-06-10T02:10:22.369Z,12.39
2019-06-10T02:12:50.735Z,12.39
2019-06-10T02:15:18.468Z,12.58
2019-06-10T02:17:47.362Z,12.64
2019-06-10T02:20:16.887Z,12.66
2019-06-10T02:22:44.443Z,12.69
2019-06-10T02:25:13.640Z,12.71
2019-06-10T02:27:41.735Z,12.76
2019-06-10T02:30:18.865Z,12.67
2019-06-10T02:32:42.598Z,12.75
2019-06-10T02:35:15.467Z,12.57
2019-06-10T02:37:38.513Z,12.54
2019-06-10T02:40:06.956Z,12.62
2019-06-10T02:42:36.425Z,12.69
2019-06-10T02:45:06.020Z,12.62
2019-06-10T02:47:38.035Z,12.54
2019-06-10T02:50:08.343Z,12.56
2019-06-10T02:52:38.111Z,12.58
2019-06-10T02:55:04.080Z,12.60
2019-06-10T02:57:39.411Z,12.53
2019-06-10T03:00:06.573Z,12.39
2019-06-10T03:02:35.882Z,12.33
2019-06-10T03:04:59.822Z,12.29
2019-06-10T03:07:31.070Z,12.22
2019-06-10T03:09:56.921Z,12.23
2019-06-10T03:12:25.868Z,12.21
2019-06-10T03:14:53.720Z,12.28
2019-06-10T03:17:25.619Z,12.27
2019-06-10T03:19:53.614Z,12.29
2019-06-10T03:22:22.955Z,12.27
2019-06-10T03:24:52.398Z,12.36
2019-06-10T03:27:21.081Z,12.35
2019-06-10T03:29:49.550Z,12.35
2019-06-10T03:32:20.168Z,12.44
2019-06-10T03:34:47.672Z,12.49
2019-06-10T03:37:16.837Z,12.63
2019-06-10T03:39:44.474Z,12.63
2019-06-10T03:42:12.605Z,12.63
2019-06-10T03:44:40.352Z,12.78
2019-06-10T03:47:08.016Z,12.68
2019-06-10T03:49:49.173Z,12.53
2019-06-10T03:52:05.098Z,12.49
2019-06-10T03:54:32.738Z,12.46
2019-06-10T03:57:02.647Z,12.55
2019-06-10T03:59:32.344Z,12.57
2019-06-10T04:01:59.239Z,12.41
2019-06-10T04:04:28.283Z,12.44
2019-06-10T04:06:56.099Z,12.61
2019-06-10T04:09:25.454Z,12.62
2019-06-10T04:11:53.394Z,12.64
2019-06-10T04:14:22.453Z,12.44
2019-06-10T04:16:52.555Z,12.51
2019-06-10T04:19:22.261Z,12.42
2019-06-10T04:21:49.406Z,12.57
2019-06-10T04:24:17.660Z,12.54
2019-06-10T04:26:45.454Z,12.54
2019-06-10T04:29:13.157Z,12.45
2019-06-10T04:31:42.506Z,12.45
2019-06-10T04:34:12.496Z,12.48
2019-06-10T04:36:42.079Z,12.62
2019-06-10T04:39:09.197Z,12.68
2019-06-10T04:41:36.830Z,12.76
2019-06-10T04:44:04.551Z,12.80
2019-06-10T04:46:32.638Z,12.86
2019-06-10T04:49:02.777Z,12.97
2019-06-10T04:51:29.894Z,12.76
2019-06-10T04:53:57.531Z,12.74
2019-06-10T04:56:27.828Z,12.77
2019-06-10T04:58:55.761Z,12.70
2019-06-10T05:01:25.479Z,12.66
2019-06-10T05:03:52.871Z,12.66
2019-06-10T05:06:21.744Z,12.67
2019-06-10T05:08:49.962Z,12.77
2019-06-10T05:11:17.618Z,12.78
2019-06-10T05:13:45.284Z,12.90
2019-06-10T05:16:12.915Z,13.00
2019-06-10T05:18:42.402Z,13.08
2019-06-10T05:21:10.007Z,13.16
2019-06-10T05:23:37.665Z,13.22
2019-06-10T05:26:05.430Z,13.29
2019-06-10T05:28:34.248Z,13.34
2019-06-10T05:31:02.876Z,13.32
2019-06-10T05:33:33.203Z,13.32
2019-06-10T05:36:02.305Z,13.32
2019-06-10T05:38:31.293Z,13.36
2019-06-10T05:40:58.952Z,13.46
2019-06-10T05:43:27.805Z,13.45
2019-06-10T05:45:55.689Z,13.35
2019-06-10T05:48:25.002Z,13.26
2019-06-10T05:51:02.605Z,13.26
2019-06-10T05:53:23.087Z,13.62
2019-06-10T05:55:52.972Z,13.81
2019-06-10T05:58:23.110Z,13.82
2019-06-10T06:00:50.308Z,13.70
2019-06-10T06:03:17.930Z,13.79
2019-06-10T06:05:45.562Z,13.85
2019-06-10T06:08:13.293Z,13.76
2019-06-10T06:10:42.367Z,13.74
2019-06-10T06:13:12.256Z,13.86
2019-06-10T06:15:42.251Z,13.90
2019-06-10T06:18:10.755Z,14.00
2019-06-10T06:20:38.462Z,14.11
2019-06-10T06:23:08.945Z,14.29
2019-06-10T06:25:42.523Z,14.47
2019-06-10T06:28:08.617Z,14.86
2019-06-10T06:30:37.579Z,15.21
2019-06-10T06:33:05.423Z,15.95
2019-06-10T06:35:36.719Z,16.32
2019-06-10T06:38:03.242Z,16.53
2019-06-10T06:40:34.281Z,17.06
2019-06-10T06:43:02.629Z,17.24
2019-06-10T06:45:29.677Z,17.82
2019-06-10T06:47:57.423Z,17.92
2019-06-10T06:50:25.727Z,17.54
2019-06-10T06:53:19.051Z,17.42
2019-06-10T06:55:23.391Z,17.48
2019-06-10T06:57:52.908Z,17.38
2019-06-10T07:00:38.694Z,17.22
2019-06-10T07:02:52.921Z,17.02
2019-06-10T07:05:22.814Z,17.15
2019-06-10T07:07:52.607Z,17.56
2019-06-10T07:10:19.798Z,17.61
2019-06-10T07:12:48.946Z,17.95
2019-06-10T07:15:18.131Z,18.10
2019-06-10T07:17:46.035Z,18.29
2019-06-10T07:20:13.811Z,18.55
2019-06-10T07:22:42.734Z,19.08
2019-06-10T07:25:12.405Z,20.05
2019-06-10T07:27:42.894Z,19.95
2019-06-10T07:30:12.588Z,19.53
2019-06-10T07:32:40.430Z,19.45
2019-06-10T07:35:08.518Z,18.47
2019-06-10T07:37:36.644Z,18.00
2019-06-10T07:40:06.205Z,17.34
2019-06-10T07:42:34.880Z,17.50
2019-06-10T07:45:03.986Z,17.71
2019-06-10T07:47:32.675Z,17.57
2019-06-10T07:50:03.045Z,17.60
2019-06-10T07:52:32.792Z,17.55
2019-06-10T07:55:02.368Z,17.36
2019-06-10T07:57:29.382Z,17.28
2019-06-10T07:59:57.114Z,17.33
2019-06-10T08:02:24.743Z,17.26
2019-06-10T08:04:54.142Z,17.14
2019-06-10T08:07:22.518Z,17.23
2019-06-10T08:09:50.274Z,17.48
2019-06-10T08:12:18.009Z,17.76
2019-06-10T08:14:45.823Z,17.68
2019-06-10T08:17:13.676Z,17.70
2019-06-10T08:19:45.976Z,17.57
2019-06-10T08:22:14.420Z,17.39
2019-06-10T08:24:43.596Z,17.38
2019-06-10T08:27:12.075Z,17.05
2019-06-10T08:29:41.615Z,16.89
2019-06-10T08:32:09.273Z,17.18
2019-06-10T08:34:37.995Z,17.29
2019-06-10T08:37:05.799Z,16.98
2019-06-10T08:39:33.701Z,17.16
2019-06-10T08:42:03.178Z,17.78
2019-06-10T08:44:32.782Z,18.86
2019-06-10T08:47:00.277Z,18.74
2019-06-10T08:49:27.911Z,18.54
2019-06-10T08:51:55.549Z,19.02
2019-06-10T08:54:23.567Z,18.91
2019-06-10T08:56:54.090Z,19.16
2019-06-10T08:59:22.579Z,19.93
2019-06-10T09:01:55.929Z,19.74
2019-06-10T09:04:19.808Z,20.18
2019-06-10T09:06:50.614Z,19.54
2019-06-10T09:09:16.942Z,19.51
2019-06-10T09:11:47.899Z,20.20
2019-06-10T09:14:15.558Z,21.85
2019-06-10T09:16:45.881Z,22.53
2019-06-10T09:19:13.268Z,22.92
2019-06-10T09:21:47.265Z,22.67
2019-06-10T09:24:12.823Z,22.55
2019-06-10T09:26:41.023Z,21.67
2019-06-10T09:29:09.262Z,21.58
2019-06-10T09:31:37.070Z,20.91
2019-06-10T09:34:04.768Z,20.74
2019-06-10T09:36:32.588Z,20.86
2019-06-10T09:39:03.751Z,21.05
2019-06-10T09:41:38.568Z,20.91
2019-06-10T09:44:00.331Z,21.08
2019-06-10T09:46:33.033Z,21.27
2019-06-10T09:49:02.167Z,21.45
2019-06-10T09:51:32.247Z,21.52
2019-06-10T09:54:03.702Z,22.36
2019-06-10T09:56:29.891Z,23.07
2019-06-10T09:58:57.562Z,23.71
2019-06-10T10:01:25.187Z,23.28
2019-06-10T10:03:59.410Z,23.18
2019-06-10T10:06:23.751Z,23.10
2019-06-10T10:08:57.546Z,23.11
2019-06-10T10:11:23.533Z,22.89
2019-06-10T10:13:51.466Z,22.49
2019-06-10T10:16:22.306Z,22.65
2019-06-10T10:18:56.579Z,23.35
2019-06-10T10:21:19.358Z,23.69
2019-06-10T10:23:54.004Z,23.90
2019-06-10T10:26:16.486Z,25.35
2019-06-10T10:28:46.189Z,24.71
2019-06-10T10:31:13.634Z,26.04
2019-06-10T10:33:42.588Z,24.17
2019-06-10T10:36:13.251Z,22.04
2019-06-10T10:38:40.011Z,22.45
2019-06-10T10:41:07.748Z,22.57
2019-06-10T10:43:37.801Z,21.71
2019-06-10T10:46:05.774Z,21.57
2019-06-10T10:48:34.294Z,22.08
2019-06-10T10:51:03.424Z,21.84
2019-06-10T10:53:32.838Z,22.20
2019-06-10T10:56:02.227Z,22.35
2019-06-10T10:58:32.535Z,22.32
2019-06-10T11:00:59.764Z,22.15
2019-06-10T11:03:27.502Z,22.09
2019-06-10T11:06:00.620Z,22.00
2019-06-10T11:08:24.723Z,21.87
2019-06-10T11:10:57.742Z,21.76
2019-06-10T11:13:23.616Z,21.71
2019-06-10T11:15:54.919Z,21.91
2019-06-10T11:18:22.749Z,21.95
2019-06-10T11:20:51.383Z,21.74
2019-06-10T11:23:19.290Z,21.59
2019-06-10T11:25:47.783Z,21.52
2019-06-10T11:28:15.559Z,21.34
2019-06-10T11:30:43.238Z,21.33
2019-06-10T11:33:10.919Z,20.90
2019-06-10T11:35:38.878Z,20.64
2019-06-10T11:38:06.847Z,20.56
2019-06-10T11:40:34.639Z,21.01
2019-06-10T11:43:02.408Z,21.75
2019-06-10T11:45:32.698Z,22.23
2019-06-10T11:47:59.532Z,22.22
2019-06-10T11:50:27.476Z,22.18
2019-06-10T11:52:57.515Z,22.05
2019-06-10T11:55:24.524Z,21.81
2019-06-10T11:57:56.018Z,21.25
2019-06-10T12:00:23.334Z,21.52
2019-06-10T12:02:53.764Z,21.36
2019-06-10T12:05:23.409Z,21.40
2019-06-10T12:07:51.841Z,21.20
2019-06-10T12:10:19.714Z,21.02
2019-06-10T12:12:47.362Z,21.02
2019-06-10T12:15:15.892Z,20.81
2019-06-10T12:17:51.161Z,20.54
2019-06-10T12:20:13.453Z,20.48
2019-06-10T12:22:42.409Z,20.38
2019-06-10T12:25:31.618Z,20.23
2019-06-10T12:27:40.357Z,19.80
2019-06-10T12:30:09.512Z,20.02
2019-06-10T12:32:37.287Z,20.10
2019-06-10T12:35:05.729Z,20.12
2019-06-10T12:37:34.415Z,19.89
2019-06-10T12:40:05.661Z,19.62
2019-06-10T12:42:32.969Z,19.61
2019-06-10T12:45:05.323Z,19.39
2019-06-10T12:47:30.280Z,19.55
2019-06-10T12:49:59.123Z,19.00
2019-06-10T12:52:26.912Z,18.86
2019-06-10T12:54:55.597Z,18.82
2019-06-10T12:57:23.465Z,18.89
2019-06-10T12:59:52.247Z,18.59
2019-06-10T13:02:24.508Z,18.42
2019-06-10T13:04:52.165Z,18.37
2019-06-10T13:07:22.655Z,18.43
2019-06-10T13:09:52.448Z,18.55
2019-06-10T13:12:22.772Z,18.50
2019-06-10T13:14:51.940Z,18.47
2019-06-10T13:17:19.090Z,18.35
2019-06-10T13:19:46.740Z,18.34
2019-06-10T13:22:14.475Z,18.25
2019-06-10T13:24:42.487Z,18.29
2019-06-10T13:27:10.299Z,18.25
2019-06-10T13:29:38.658Z,18.25
2019-06-10T13:32:08.027Z,18.17
2019-06-10T13:34:35.875Z,17.58
2019-06-10T13:37:05.576Z,17.80
2019-06-10T13:39:33.046Z,17.91
2019-06-10T13:42:05.940Z,17.36
2019-06-10T13:44:32.125Z,17.05
2019-06-10T13:46:59.658Z,17.17
2019-06-10T13:49:27.334Z,17.44
2019-06-10T13:51:55.003Z,17.68
2019-06-10T13:54:22.775Z,17.70
2019-06-10T13:56:52.375Z,17.23
2019-06-10T13:59:19.847Z,17.45
2019-06-10T14:01:47.548Z,17.12
2019-06-10T14:04:21.573Z,16.69
2019-06-10T14:06:49.823Z,16.84
2019-06-10T14:09:16.582Z,17.03
2019-06-10T14:11:43.615Z,16.94
2019-06-10T14:14:14.048Z,16.84
2019-06-10T14:16:42.375Z,17.17
2019-06-10T14:19:12.601Z,17.07
2019-06-10T14:21:42.344Z,17.38
2019-06-10T14:24:10.354Z,17.35
2019-06-10T14:26:42.969Z,17.24
2019-06-10T14:29:09.165Z,17.05
2019-06-10T14:31:43.497Z,17.16
2019-06-10T14:34:09.167Z,17.21
2019-06-10T14:36:35.827Z,17.32
2019-06-10T14:39:06.123Z,17.47
2019-06-10T14:41:33.958Z,17.42
2019-06-10T14:44:01.602Z,17.55
2019-06-10T14:46:29.337Z,17.82
2019-06-10T14:48:57.076Z,18.13
2019-06-10T14:51:24.805Z,17.84
2019-06-10T14:53:52.448Z,18.10
2019-06-10T14:56:23.124Z,17.74
2019-06-10T14:58:49.512Z,17.99
2019-06-10T15:01:24.141Z,18.18
2019-06-10T15:03:46.545Z,17.24
2019-06-10T15:06:15.580Z,17.75
2019-06-10T15:08:43.525Z,18.27
2019-06-10T15:11:11.689Z,18.45
2019-06-10T15:13:43.488Z,18.46
2019-06-10T15:16:10.642Z,18.29
2019-06-10T15:18:38.408Z,18.40
2019-06-10T15:21:06.156Z,18.51
2019-06-10T15:23:33.919Z,18.15
2019-06-10T15:26:02.790Z,18.01
2019-06-10T15:28:32.325Z,18.01
2019-06-10T15:31:03.200Z,17.94
2019-06-10T15:33:32.598Z,17.86
2019-06-10T15:36:02.343Z,17.69
2019-06-10T15:38:32.527Z,17.80
2019-06-10T15:40:59.071Z,17.84
2019-06-10T15:43:26.763Z,17.94
2019-06-10T15:45:54.524Z,17.87
2019-06-10T15:48:25.290Z,17.78
2019-06-10T15:50:51.637Z,17.76
2019-06-10T15:53:20.794Z,17.76
2019-06-10T15:56:12.219Z,17.72
2019-06-10T15:58:19.892Z,17.71
2019-06-10T16:00:47.530Z,17.71
2019-06-10T16:03:17.182Z,17.77
2019-06-10T16:05:44.680Z,17.62
2019-06-10T16:08:14.123Z,17.70
2019-06-10T16:10:42.847Z,17.64
2019-06-10T16:13:10.760Z,17.60
2019-06-10T16:15:38.506Z,17.64
2019-06-10T16:18:06.273Z,17.46
2019-06-10T16:20:34.017Z,17.32
2019-06-10T16:23:02.937Z,17.36
2019-06-10T16:25:30.808Z,17.26
2019-06-10T16:27:58.492Z,17.36
2019-06-10T16:30:26.299Z,17.33
2019-06-10T16:32:54.011Z,17.25
2019-06-10T16:35:23.929Z,17.21
2019-06-10T16:37:54.544Z,17.00
2019-06-10T16:40:23.855Z,17.15
2019-06-10T16:42:53.226Z,17.19
2019-06-10T16:45:25.506Z,17.32
2019-06-10T16:47:49.914Z,17.10
2019-06-10T16:50:17.679Z,17.20
2019-06-10T16:52:45.368Z,17.20
2019-06-10T16:55:13.174Z,17.26
2019-06-10T16:57:40.827Z,17.40
2019-06-10T17:00:11.961Z,17.36
2019-06-10T17:02:38.280Z,17.24
2019-06-10T17:05:06.099Z,17.21
2019-06-10T17:07:34.128Z,17.12
2019-06-10T17:10:02.426Z,17.19
2019-06-10T17:12:33.005Z,16.98
2019-06-10T17:14:59.679Z,16.71
2019-06-10T17:17:28.634Z,16.17
2019-06-10T17:19:56.839Z,16.14
2019-06-10T17:22:27.381Z,15.88
2019-06-10T17:24:54.031Z,15.81
2019-06-10T17:27:23.803Z,15.56
2019-06-10T17:29:52.022Z,15.52
2019-06-10T17:32:22.071Z,15.74
2019-06-10T17:34:49.258Z,15.89
2019-06-10T17:37:16.938Z,15.71
2019-06-10T17:39:44.608Z,15.52
2019-06-10T17:42:12.480Z,15.52
2019-06-10T17:44:42.727Z,15.44
2019-06-10T17:47:09.755Z,15.39
2019-06-10T17:49:37.454Z,15.38
2019-06-10T17:52:05.210Z,15.31
2019-06-10T17:54:32.842Z,15.33
2019-06-10T17:57:02.345Z,15.33
2019-06-10T17:59:31.410Z,15.30
2019-06-10T18:01:59.343Z,15.29
2019-06-10T18:04:27.319Z,15.31
2019-06-10T18:06:55.059Z,15.31
2019-06-10T18:09:24.405Z,15.24
2019-06-10T18:11:52.170Z,15.26
2019-06-10T18:14:19.826Z,15.34
2019-06-10T18:16:47.475Z,15.45
2019-06-10T18:19:15.139Z,15.42
2019-06-10T18:21:42.791Z,15.18
2019-06-10T18:24:12.574Z,15.21
2019-06-10T18:26:42.241Z,15.18
2019-06-10T18:29:09.842Z,15.10
2019-06-10T18:31:38.730Z,15.02
2019-06-10T18:34:06.482Z,15.11
2019-06-10T18:36:35.826Z,15.06
2019-06-10T18:39:05.377Z,15.18
2019-06-10T18:41:33.054Z,15.13
2019-06-10T18:44:02.349Z,15.20
2019-06-10T18:46:32.682Z,15.28
2019-06-10T18:48:59.605Z,15.26
2019-06-10T18:51:29.269Z,15.33
2019-06-10T18:53:57.039Z,15.36
2019-06-10T18:56:24.878Z,15.41
2019-06-10T18:58:53.054Z,15.44
2019-06-10T19:01:22.651Z,15.55
2019-06-10T19:03:50.789Z,15.54
2019-06-10T19:06:18.519Z,15.48
2019-06-10T19:08:46.192Z,15.56
2019-06-10T19:11:14.227Z,15.53
2019-06-10T19:13:43.550Z,15.55
2019-06-10T19:16:12.956Z,15.55
2019-06-10T19:18:43.066Z,15.49
2019-06-10T19:21:12.554Z,15.42
2019-06-10T19:23:41.436Z,15.42
2019-06-10T19:26:09.168Z,15.38
2019-06-10T19:28:38.735Z,15.36
2019-06-10T19:31:06.258Z,15.35
2019-06-10T19:33:35.847Z,15.36
2019-06-10T19:36:03.598Z,15.33
2019-06-10T19:38:32.442Z,15.33
2019-06-10T19:41:02.742Z,15.35
2019-06-10T19:43:30.157Z,15.27
2019-06-10T19:45:57.930Z,15.34
2019-06-10T19:48:25.690Z,15.28
2019-06-10T19:50:53.986Z,15.32
2019-06-10T19:53:22.230Z,15.22
2019-06-10T19:55:50.043Z,15.22
2019-06-10T19:58:17.683Z,15.25
2019-06-10T20:00:50.933Z,15.21
2019-06-10T20:03:14.912Z,15.18
2019-06-10T20:05:44.816Z,15.23
2019-06-10T20:08:12.229Z,15.29
2019-06-10T20:10:40.218Z,15.37
2019-06-10T20:13:08.044Z,15.34
2019-06-10T20:15:35.724Z,15.33
2019-06-10T20:18:03.392Z,15.33
2019-06-10T20:20:33.311Z,15.44
2019-06-10T20:23:03.093Z,15.38
2019-06-10T20:25:30.080Z,15.28
2019-06-10T20:27:57.817Z,15.24
2019-06-10T20:30:28.982Z,15.17
2019-06-10T20:32:56.320Z,15.15
2019-06-10T20:35:24.318Z,15.08
2019-06-10T20:37:53.937Z,15.03
2019-06-10T20:40:21.955Z,14.97
2019-06-10T20:42:49.618Z,14.88
2019-06-10T20:45:17.376Z,14.87
2019-06-10T20:47:47.827Z,14.75
2019-06-10T20:50:14.928Z,14.81
2019-06-10T20:52:44.173Z,14.71
2019-06-10T20:55:12.846Z,14.71
2019-06-10T20:57:51.879Z,14.69
2019-06-10T21:00:19.793Z,14.60
2019-06-10T21:02:40.910Z,14.56
2019-06-10T21:05:10.447Z,14.56
2019-06-10T21:07:39.227Z,14.44
2019-06-10T21:10:08.421Z,14.39
2019-06-10T21:12:36.085Z,14.41
2019-06-10T21:15:04.888Z,14.35
2019-06-10T21:17:33.292Z,14.16
2019-06-10T21:20:03.199Z,14.00
2019-06-10T21:22:32.506Z,13.90
2019-06-10T21:25:02.206Z,13.83
2019-06-10T21:27:29.445Z,13.80
2019-06-10T21:29:57.111Z,13.73
2019-06-10T21:32:24.835Z,13.80
2019-06-10T21:34:53.898Z,13.86
2019-06-10T21:37:22.685Z,13.90
2019-06-10T21:39:51.586Z,13.76
2019-06-10T21:42:19.838Z,13.82
2019-06-10T21:44:47.997Z,13.78
2019-06-10T21:47:15.822Z,13.80
2019-06-10T21:49:44.275Z,13.73
2019-06-10T21:52:13.047Z,13.73
2019-06-10T21:54:42.562Z,13.74
2019-06-10T21:57:10.321Z,13.80
2019-06-10T21:59:38.036Z,13.73
2019-06-10T22:02:05.863Z,13.69
2019-06-10T22:04:33.571Z,13.77
2019-06-10T22:07:03.210Z,13.75
2019-06-10T22:09:30.722Z,13.69
2019-06-10T22:11:58.424Z,13.73
2019-06-10T22:14:26.105Z,13.83
2019-06-10T22:16:56.271Z,13.74
2019-06-10T22:19:23.281Z,13.80
2019-06-10T22:21:53.193Z,13.74
2019-06-10T22:24:22.784Z,13.63
2019-06-10T22:26:50.950Z,13.67
2019-06-10T22:29:18.734Z,13.66
2019-06-10T22:31:47.156Z,13.78
2019-06-10T22:34:14.833Z,13.69
2019-06-10T22:36:42.587Z,13.70
2019-06-10T22:39:12.519Z,13.72
2019-06-10T22:41:39.770Z,13.69
2019-06-10T22:44:07.519Z,13.60
2019-06-10T22:46:36.695Z,13.54
2019-06-10T22:49:04.439Z,13.45
2019-06-10T22:51:32.945Z,13.70
2019-06-10T22:54:03.476Z,13.50
2019-06-10T22:56:30.406Z,13.71
2019-06-10T22:58:58.070Z,13.50
2019-06-10T23:01:34.433Z,13.66
2019-06-10T23:03:56.232Z,13.62
2019-06-10T23:06:24.150Z,13.60
2019-06-10T23:08:54.754Z,13.55
2019-06-10T23:11:21.160Z,13.50
2019-06-10T23:13:48.898Z,13.49
2019-06-10T23:16:16.551Z,13.60
2019-06-10T23:18:44.194Z,13.60
2019-06-10T23:21:13.419Z,13.58
2019-06-10T23:23:43.124Z,13.49
2019-06-10T23:26:12.949Z,13.65
2019-06-10T23:28:41.976Z,13.51
2019-06-10T23:31:09.416Z,13.45
2019-06-10T23:33:37.166Z,13.45
2019-06-10T23:36:04.884Z,13.38
2019-06-10T23:38:33.017Z,13.38
2019-06-10T23:41:03.157Z,13.33
2019-06-10T23:43:30.116Z,13.42
2019-06-10T23:45:57.749Z,13.35
2019-06-10T23:48:25.468Z,13.34
2019-06-10T23:50:55.664Z,13.37
2019-06-10T23:53:23.189Z,13.38
2019-06-10T23:55:53.523Z,13.39
2019-06-10T23:58:22.831Z,13.29
